Connexion S'enregistrer

Connexion à votre compte

Identifiant
Mot de passe
Maintenir la connexion active sur ce site

Créer un compte

Pour valider ce formulaire, vous devez remplir tous les champs.
Nom
Identifiant
Mot de passe
Répétez le mot de passe
Adresse e-mail
Répétez l'adresse e-mail

METAR/TAF de Chambéry

[source: ADDS]
METAR
LFLB 190330Z AUTO 36012KT 9999 FEW029 03/M01 Q1027 =
TAF LFLB 181700Z 1818/1918 34004KT CAVOK PROB30 TEMPO 1818/1824 3000 BR BECMG 1821/1824 02012KT BECMG 1903/1905 BKN030 TEMPO 1910/1918 02015G25KT
TAF
TAF LFLB 181700Z 1818/1918 34004KT CAVOK PROB30 TEMPO 1818/1824 3000 BR BECMG 1821/1824 02012KT BECMG 1903/1905 BKN030 TEMPO 1910/1918 02015G25KT =
SR / SS: 07:10 / 16:23 UTC (Lever/Coucher du soleil le 2020-01-19)

 

Webcam de l'Aéroclub - Parking Lima et SW (réactualisation : 5min)

Cliquer ici pour une animation sur les 3 dernières heures / Cliquer sur l'image pour l'agrandir dans une nouvelle fenêtre

 

Webcam de l'Aéroclub - Manche à air et WA (réactualisation : 5min)

Cliquer ici pour une animation sur les 3 dernières heures / Cliquer sur l'image pour l'agrandir dans une nouvelle fenêtre

 

JSN Boot template designed by JoomlaShine.com